Time;durP1;ratioP1;P1;durP2;ratioP2;P2;SDS_P1;SDS_P2;PMS_P1;PMS_P2;Temp;Humidity;BMP_temperature;BMP_pressure;BME280_temperature;BME280_humidity;BME280_pressure;Samples;Min_cycle;Max_cycle;Signal;HPM_P1;HPM_P2
2022/03/08 00:00:44;;;;;;;14.00;7.00;;;0.40;99.90;;;;;;4905912;28;142822;-78
2022/03/08 00:03:10;;;;;;;15.73;7.43;;;0.40;99.90;;;;;;4967802;28;20055;-78
2022/03/08 00:05:37;;;;;;;15.77;7.55;;;0.30;99.90;;;;;;4888043;28;83763;-78
2022/03/08 00:08:03;;;;;;;16.20;7.82;;;0.30;99.90;;;;;;4970639;28;20476;-78
2022/03/08 00:10:29;;;;;;;20.05;8.02;;;0.30;99.90;;;;;;4910595;28;175877;-78
2022/03/08 00:12:55;;;;;;;16.10;8.13;;;0.30;99.90;;;;;;4951286;28;21417;-78
2022/03/08 00:15:24;;;;;;;15.50;7.57;;;0.20;99.90;;;;;;4940147;28;265122;-78
2022/03/08 00:17:51;;;;;;;15.13;7.45;;;0.20;99.90;;;;;;4978248;28;20493;-80
2022/03/08 00:20:17;;;;;;;15.27;7.78;;;0.10;99.90;;;;;;4918499;28;217993;-79
2022/03/08 00:22:44;;;;;;;16.48;7.25;;;0.10;99.90;;;;;;4965560;28;20050;-79
2022/03/08 00:25:11;;;;;;;15.82;7.90;;;0.10;99.90;;;;;;4928068;28;259246;-79
2022/03/08 00:27:42;;;;;;;16.73;7.78;;;0.00;99.90;;;;;;4967943;28;20051;-77
2022/03/08 00:30:08;;;;;;;16.27;7.40;;;0.00;99.90;;;;;;4929147;28;20046;-78
2022/03/08 00:32:35;;;;;;;17.70;7.72;;;-0.10;99.90;;;;;;4962036;28;20302;-79
2022/03/08 00:35:01;;;;;;;15.63;7.78;;;-0.10;99.90;;;;;;4918205;28;139445;-79
2022/03/08 00:37:27;;;;;;;14.75;7.55;;;-0.10;99.90;;;;;;4961165;28;20078;-79
2022/03/08 00:39:53;;;;;;;15.00;7.57;;;-0.10;99.90;;;;;;4927269;28;131412;-79
2022/03/08 00:42:20;;;;;;;18.52;8.15;;;-0.10;99.90;;;;;;4961529;28;20059;-79
2022/03/08 00:44:46;;;;;;;16.02;7.60;;;-0.10;99.90;;;;;;4934802;28;60138;-80
2022/03/08 00:47:13;;;;;;;15.40;7.60;;;-0.20;99.90;;;;;;4970857;28;20075;-79
2022/03/08 00:49:39;;;;;;;17.17;7.57;;;-0.20;99.90;;;;;;4925247;28;253732;-79
2022/03/08 00:52:07;;;;;;;14.52;7.40;;;-0.20;99.90;;;;;;4964376;28;20464;-79
2022/03/08 00:54:33;;;;;;;16.65;7.30;;;-0.20;99.90;;;;;;4921560;28;231581;-79
2022/03/08 00:57:00;;;;;;;16.02;7.05;;;-0.20;99.90;;;;;;4959654;28;20058;-78
2022/03/08 00:59:26;;;;;;;16.17;7.47;;;-0.20;99.90;;;;;;4924625;28;205707;-78
2022/03/08 01:01:52;;;;;;;14.63;7.50;;;-0.20;99.90;;;;;;4973758;28;20058;-79
2022/03/08 01:04:18;;;;;;;15.23;7.30;;;-0.30;99.90;;;;;;4915302;28;257420;-79
2022/03/08 01:06:44;;;;;;;17.40;8.30;;;-0.30;99.90;;;;;;4961738;28;20138;-80
2022/03/08 01:09:10;;;;;;;15.40;7.50;;;-0.30;99.90;;;;;;4951686;28;120044;-79
2022/03/08 01:11:39;;;;;;;15.32;7.55;;;-0.30;99.90;;;;;;4947415;28;20047;-80
2022/03/08 01:14:07;;;;;;;17.50;8.25;;;-0.40;99.90;;;;;;4964571;28;260738;-79
2022/03/08 01:16:34;;;;;;;16.63;7.82;;;-0.40;99.90;;;;;;4941043;28;20041;-79
2022/03/08 01:19:03;;;;;;;16.03;7.30;;;-0.40;99.90;;;;;;4973489;28;269665;-79
2022/03/08 01:21:29;;;;;;;14.60;7.22;;;-0.50;99.90;;;;;;4933731;28;20420;-79
2022/03/08 01:23:55;;;;;;;16.80;7.70;;;-0.50;99.90;;;;;;4959862;28;262973;-80
2022/03/08 01:26:21;;;;;;;17.77;7.70;;;-0.50;99.90;;;;;;4936071;28;20054;-80
2022/03/08 01:28:47;;;;;;;20.30;7.80;;;-0.50;99.90;;;;;;4958519;28;261510;-80
2022/03/08 01:31:14;;;;;;;16.55;7.93;;;-0.60;99.90;;;;;;4949394;28;20057;-79
2022/03/08 01:33:40;;;;;;;14.38;7.43;;;-0.60;99.90;;;;;;4976132;28;20066;-79
2022/03/08 01:36:06;;;;;;;20.73;8.02;;;-0.60;99.90;;;;;;4941670;28;260340;-80
2022/03/08 01:38:32;;;;;;;16.15;7.95;;;-0.60;99.90;;;;;;4972740;28;20050;-79
2022/03/08 01:40:58;;;;;;;18.38;8.40;;;-0.60;99.90;;;;;;4917059;28;121868;-79
2022/03/08 01:43:25;;;;;;;15.38;7.65;;;-0.60;99.90;;;;;;4968592;28;20047;-80
2022/03/08 01:45:51;;;;;;;15.77;7.60;;;-0.60;99.90;;;;;;4901726;28;122116;-80
2022/03/08 01:48:17;;;;;;;16.88;8.00;;;-0.60;99.90;;;;;;4970250;28;20402;-80
2022/03/08 01:50:43;;;;;;;18.27;8.40;;;-0.70;99.90;;;;;;4931442;28;169312;-80
2022/03/08 01:53:10;;;;;;;18.00;8.27;;;-0.60;99.90;;;;;;4967428;28;20047;-79
2022/03/08 01:55:36;;;;;;;18.95;8.30;;;-0.70;99.90;;;;;;4908006;28;192876;-79
2022/03/08 01:58:02;;;;;;;16.13;8.48;;;-0.70;99.90;;;;;;4969637;28;20530;-79
2022/03/08 02:00:30;;;;;;;17.85;8.32;;;-0.60;99.90;;;;;;4945616;28;277538;-79
2022/03/08 02:02:57;;;;;;;19.63;8.32;;;-0.60;99.90;;;;;;4988307;28;20536;-78
2022/03/08 02:05:25;;;;;;;17.77;7.53;;;-0.60;99.90;;;;;;4927162;28;116328;-79
2022/03/08 02:07:52;;;;;;;17.00;8.18;;;-0.60;99.90;;;;;;4955043;28;20047;-78
2022/03/08 02:10:18;;;;;;;15.60;7.68;;;-0.60;99.90;;;;;;4917732;28;252964;-79
2022/03/08 02:12:45;;;;;;;17.10;8.35;;;-0.60;99.90;;;;;;4954528;28;20047;-78
2022/03/08 02:15:20;;;;;;;17.73;8.52;;;-0.60;99.90;;;;;;4923351;28;218224;-79
2022/03/08 02:17:47;;;;;;;17.15;8.32;;;-0.60;99.90;;;;;;4975916;28;20058;-79
2022/03/08 02:20:14;;;;;;;19.02;8.70;;;-0.60;99.90;;;;;;4924736;28;20074;-79
2022/03/08 02:22:42;;;;;;;17.50;8.68;;;-0.70;99.90;;;;;;4958238;28;20070;-79
2022/03/08 02:25:09;;;;;;;21.77;9.00;;;-0.60;99.90;;;;;;4910975;28;103534;-78
2022/03/08 02:27:42;;;;;;;18.42;8.60;;;-0.70;99.90;;;;;;4967057;28;20043;-79
2022/03/08 02:30:09;;;;;;;18.50;9.05;;;-0.70;99.90;;;;;;4933516;28;35925;-80
2022/03/08 02:32:36;;;;;;;17.65;8.73;;;-0.70;99.90;;;;;;4975483;28;20206;-79
2022/03/08 02:35:06;;;;;;;18.38;8.27;;;-0.70;99.90;;;;;;4929158;28;270171;-79
2022/03/08 02:37:44;;;;;;;17.52;8.18;;;-0.70;99.90;;;;;;4964829;28;20055;-79
2022/03/08 02:40:12;;;;;;;19.75;8.82;;;-0.70;99.90;;;;;;4921820;28;143416;-79
2022/03/08 02:42:39;;;;;;;19.48;8.43;;;-0.80;99.90;;;;;;4968072;28;20059;-79
2022/03/08 02:45:06;;;;;;;19.27;8.93;;;-0.80;99.90;;;;;;4926785;28;31875;-79
2022/03/08 02:47:32;;;;;;;18.60;8.90;;;-0.80;99.90;;;;;;4947217;28;20046;-79
2022/03/08 02:49:59;;;;;;;18.40;9.48;;;-0.80;99.90;;;;;;4932729;28;206206;-79
2022/03/08 02:52:26;;;;;;;19.30;9.73;;;-0.80;99.90;;;;;;4954668;28;20057;-79
2022/03/08 02:54:52;;;;;;;20.88;9.82;;;-0.80;99.90;;;;;;4936868;28;261065;-79
2022/03/08 02:57:18;;;;;;;23.33;10.23;;;-0.80;99.90;;;;;;4983054;28;20269;-79
2022/03/08 02:59:44;;;;;;;19.35;9.23;;;-0.80;99.90;;;;;;4937264;28;81368;-79
2022/03/08 03:02:10;;;;;;;19.15;9.48;;;-0.80;99.90;;;;;;4974987;28;20055;-79
2022/03/08 03:04:37;;;;;;;18.63;9.10;;;-0.80;99.90;;;;;;4923907;28;237396;-78
2022/03/08 03:07:04;;;;;;;17.30;8.77;;;-0.80;99.90;;;;;;4972140;28;20051;-79
2022/03/08 03:09:30;;;;;;;17.88;8.85;;;-0.80;99.90;;;;;;4927696;28;245013;-79
2022/03/08 03:11:56;;;;;;;19.13;9.65;;;-0.80;99.90;;;;;;4968182;28;20062;-79
2022/03/08 03:14:22;;;;;;;20.30;9.35;;;-0.80;99.90;;;;;;4932151;28;128779;-79
2022/03/08 03:16:48;;;;;;;17.48;8.75;;;-0.90;99.90;;;;;;4973434;28;20389;-80
2022/03/08 03:19:14;;;;;;;19.83;8.95;;;-0.90;99.90;;;;;;4955027;28;144543;-79
2022/03/08 03:21:41;;;;;;;18.73;9.38;;;-0.80;99.90;;;;;;4926578;28;20054;-80
2022/03/08 03:24:07;;;;;;;22.70;9.40;;;-0.90;99.90;;;;;;4958155;28;255928;-79
2022/03/08 03:26:33;;;;;;;19.50;9.35;;;-0.90;99.90;;;;;;4929594;28;20043;-80
2022/03/08 03:28:59;;;;;;;21.92;9.98;;;-0.90;99.90;;;;;;4957577;28;266440;-79
2022/03/08 03:31:26;;;;;;;19.90;9.32;;;-0.90;99.90;;;;;;4944721;28;20043;-80
2022/03/08 03:33:52;;;;;;;22.60;10.93;;;-0.90;99.90;;;;;;4957286;28;273508;-80
2022/03/08 03:36:18;;;;;;;20.92;9.95;;;-0.80;99.90;;;;;;4896829;28;20043;-80
2022/03/08 03:38:44;;;;;;;20.92;10.15;;;-0.80;99.90;;;;;;4975481;28;20428;-79
2022/03/08 03:41:10;;;;;;;18.10;9.48;;;-0.80;99.90;;;;;;4933680;28;20038;-80
2022/03/08 03:43:37;;;;;;;21.55;10.40;;;-0.80;99.90;;;;;;4974176;28;20057;-80
2022/03/08 03:46:05;;;;;;;20.45;10.35;;;-0.70;99.90;;;;;;4903556;28;171207;-80
2022/03/08 03:48:32;;;;;;;20.55;10.50;;;-0.70;99.90;;;;;;4983238;28;20055;-79
2022/03/08 03:50:58;;;;;;;22.08;10.93;;;-0.60;99.90;;;;;;4939466;28;276687;-80
2022/03/08 03:53:24;;;;;;;21.13;10.45;;;-0.60;99.90;;;;;;4962263;28;20050;-82
2022/03/08 03:55:50;;;;;;;21.92;11.55;;;-0.60;99.90;;;;;;4927399;28;20043;-82
2022/03/08 03:58:17;;;;;;;21.90;11.13;;;-0.70;99.90;;;;;;4979394;28;20174;-81
2022/03/08 04:00:43;;;;;;;21.00;10.52;;;-0.70;99.90;;;;;;4929325;28;30903;-80
2022/03/08 04:03:09;;;;;;;22.25;10.75;;;-0.70;99.90;;;;;;4972213;28;20051;-80
2022/03/08 04:05:35;;;;;;;21.50;11.40;;;-0.70;99.90;;;;;;4894627;28;156232;-81
2022/03/08 04:08:01;;;;;;;22.85;11.38;;;-0.70;99.90;;;;;;4969255;28;20407;-81
2022/03/08 04:10:28;;;;;;;22.55;11.40;;;-0.70;99.90;;;;;;4921238;28;199381;-81
2022/03/08 04:12:54;;;;;;;24.15;11.60;;;-0.70;99.90;;;;;;4972356;28;20046;-82
2022/03/08 04:15:20;;;;;;;22.40;11.20;;;-0.80;99.90;;;;;;4916405;28;246484;-81
2022/03/08 04:17:47;;;;;;;22.35;11.70;;;-0.70;99.90;;;;;;4972584;28;20053;-82
2022/03/08 04:20:13;;;;;;;20.30;11.23;;;-0.70;99.90;;;;;;4907307;28;220136;-82
2022/03/08 04:22:40;;;;;;;26.25;12.60;;;-0.70;99.90;;;;;;4968342;28;20051;-82
2022/03/08 04:25:07;;;;;;;20.80;10.82;;;-0.70;99.90;;;;;;4930191;28;27012;-82
2022/03/08 04:27:33;;;;;;;23.52;11.80;;;-0.70;99.90;;;;;;4960577;28;20543;-82
2022/03/08 04:29:59;;;;;;;22.83;11.73;;;-0.70;99.90;;;;;;4920788;28;102096;-82
2022/03/08 04:32:25;;;;;;;23.13;11.63;;;-0.80;99.90;;;;;;4970809;28;20039;-82
2022/03/08 04:34:51;;;;;;;22.42;11.25;;;-0.80;99.90;;;;;;4933040;28;26363;-82
2022/03/08 04:37:17;;;;;;;24.02;12.07;;;-0.80;99.90;;;;;;4968466;28;20046;-81
2022/03/08 04:39:45;;;;;;;24.67;12.45;;;-0.80;99.90;;;;;;4934567;28;120577;-81
2022/03/08 04:42:11;;;;;;;21.85;11.15;;;-0.80;99.90;;;;;;4974809;28;20065;-82
2022/03/08 04:44:38;;;;;;;23.58;11.35;;;-0.90;99.90;;;;;;4939484;28;260247;-83
2022/03/08 04:47:04;;;;;;;23.25;12.50;;;-0.90;99.90;;;;;;4969087;28;20047;-82
2022/03/08 04:49:30;;;;;;;22.67;11.80;;;-0.90;99.90;;;;;;4939767;28;140310;-82
2022/03/08 04:51:56;;;;;;;21.40;11.63;;;-0.90;99.90;;;;;;4970526;28;20046;-82
2022/03/08 04:54:22;;;;;;;24.55;12.35;;;-0.90;99.90;;;;;;4931981;28;53292;-81
2022/03/08 04:56:48;;;;;;;25.67;12.82;;;-1.00;99.90;;;;;;4946869;28;20061;-82
2022/03/08 04:59:15;;;;;;;23.17;12.18;;;-1.00;99.90;;;;;;4959950;28;22177;-82
2022/03/08 05:01:42;;;;;;;23.65;11.88;;;-1.00;99.90;;;;;;4951455;28;20050;-82
2022/03/08 05:04:08;;;;;;;23.98;12.68;;;-1.00;99.90;;;;;;4931937;28;261428;-82
2022/03/08 05:06:34;;;;;;;23.70;12.20;;;-1.00;99.90;;;;;;4940285;28;20455;-82
2022/03/08 05:09:02;;;;;;;23.35;12.60;;;-1.10;99.90;;;;;;4958343;28;260236;-82
2022/03/08 05:11:28;;;;;;;26.05;12.82;;;-1.10;99.90;;;;;;4902582;28;20568;-82
2022/03/08 05:13:54;;;;;;;25.03;12.33;;;-1.10;99.90;;;;;;4957721;28;268252;-82
2022/03/08 05:16:21;;;;;;;22.88;11.73;;;-1.10;99.90;;;;;;4932398;28;20150;-82
2022/03/08 05:18:47;;;;;;;24.13;13.18;;;-1.10;99.90;;;;;;4963612;28;252433;-82
2022/03/08 05:21:13;;;;;;;25.75;13.30;;;-1.10;99.90;;;;;;4957162;28;20424;-83
2022/03/08 05:23:39;;;;;;;24.13;12.55;;;-1.10;99.90;;;;;;4989312;28;20061;-83
2022/03/08 05:26:05;;;;;;;26.10;12.95;;;-1.10;99.90;;;;;;4932366;28;96496;-82
2022/03/08 05:28:34;;;;;;;26.25;13.25;;;-1.10;99.90;;;;;;4977252;28;20058;-81
2022/03/08 05:31:00;;;;;;;26.05;13.55;;;-1.10;99.90;;;;;;4907343;28;59873;-82
2022/03/08 05:33:26;;;;;;;24.45;13.10;;;-1.10;99.90;;;;;;4971097;28;20047;-82
2022/03/08 05:35:52;;;;;;;24.10;12.70;;;-1.20;99.90;;;;;;4933800;28;236893;-81
2022/03/08 05:38:18;;;;;;;26.80;13.80;;;-1.20;99.90;;;;;;4980820;28;20058;-82
2022/03/08 05:40:45;;;;;;;25.60;13.25;;;-1.20;99.90;;;;;;4943864;28;31107;-82
2022/03/08 05:43:11;;;;;;;24.45;13.60;;;-1.20;99.90;;;;;;4982937;28;20066;-82
2022/03/08 05:45:39;;;;;;;26.48;13.90;;;-1.20;99.90;;;;;;4939898;28;82812;-82
2022/03/08 05:48:05;;;;;;;24.63;13.95;;;-1.30;99.90;;;;;;4977595;28;20047;-82
2022/03/08 05:50:31;;;;;;;27.25;13.45;;;-1.30;99.90;;;;;;4925809;28;125682;-85
2022/03/08 05:52:57;;;;;;;26.52;13.57;;;-1.30;99.90;;;;;;4965043;28;20153;-85
2022/03/08 05:55:24;;;;;;;26.02;13.93;;;-1.30;99.90;;;;;;4919458;28;75296;-84
2022/03/08 05:57:51;;;;;;;24.60;13.20;;;-1.30;99.90;;;;;;4963698;28;20065;-83
2022/03/08 06:00:17;;;;;;;28.98;14.27;;;-1.30;99.90;;;;;;4919922;28;246827;-82
2022/03/08 06:02:43;;;;;;;28.23;13.40;;;-1.20;99.90;;;;;;4960832;28;20051;-83
2022/03/08 06:05:09;;;;;;;25.58;13.82;;;-1.30;99.90;;;;;;4904129;28;192568;-83
2022/03/08 06:07:36;;;;;;;26.15;13.38;;;-1.30;99.90;;;;;;4961279;28;20055;-83
2022/03/08 06:10:06;;;;;;;26.48;14.48;;;-1.30;99.90;;;;;;4907221;28;226458;-83
2022/03/08 06:12:32;;;;;;;25.33;13.30;;;-1.30;99.90;;;;;;4964805;28;20168;-84
2022/03/08 06:14:58;;;;;;;28.27;14.63;;;-1.30;99.90;;;;;;4931788;28;78511;-83
2022/03/08 06:17:25;;;;;;;29.63;14.38;;;-1.30;99.90;;;;;;4975160;28;20046;-83
2022/03/08 06:19:51;;;;;;;26.27;13.85;;;-1.30;99.90;;;;;;4926185;28;127805;-85
2022/03/08 06:22:17;;;;;;;25.90;13.50;;;-1.30;99.90;;;;;;4964333;28;20062;-84
2022/03/08 06:24:43;;;;;;;27.50;13.55;;;-1.30;99.90;;;;;;4928763;28;133869;-85
2022/03/08 06:27:10;;;;;;;25.00;13.43;;;-1.20;99.90;;;;;;4957678;28;20050;-83
2022/03/08 06:29:36;;;;;;;27.35;14.02;;;-1.20;99.90;;;;;;4947389;28;58977;-83
2022/03/08 06:32:02;;;;;;;26.02;14.02;;;-1.20;99.90;;;;;;4958829;28;20057;-82
2022/03/08 06:34:29;;;;;;;25.00;13.27;;;-1.20;99.90;;;;;;4951103;28;20054;-83
2022/03/08 06:36:55;;;;;;;28.70;13.90;;;-1.20;99.90;;;;;;4973318;28;20161;-82
2022/03/08 06:39:21;;;;;;;27.40;13.57;;;-1.10;99.90;;;;;;4926632;28;143401;-83
2022/03/08 06:41:47;;;;;;;29.98;13.65;;;-1.10;99.90;;;;;;4941862;28;20055;-83
2022/03/08 06:44:13;;;;;;;24.80;14.43;;;-1.00;99.90;;;;;;4981718;28;20048;-82
2022/03/08 06:46:44;;;;;;;27.40;14.27;;;-1.00;99.90;;;;;;4963525;28;20318;-83
2022/03/08 06:49:13;;;;;;;26.90;14.80;;;-0.90;99.90;;;;;;4956026;28;207308;-83
2022/03/08 06:51:40;;;;;;;28.95;14.45;;;-0.90;99.90;;;;;;4897610;28;20050;-82
2022/03/08 06:54:08;;;;;;;25.70;14.18;;;-0.80;99.90;;;;;;4952476;28;253401;-83
2022/03/08 06:56:35;;;;;;;24.50;13.13;;;-0.70;99.90;;;;;;4912901;28;20066;-83
2022/03/08 06:59:02;;;;;;;26.52;14.13;;;-0.60;99.90;;;;;;4932065;28;277935;-82
2022/03/08 07:01:28;;;;;;;26.42;13.15;;;-0.60;99.90;;;;;;4941861;28;20085;-82
2022/03/08 07:03:55;;;;;;;24.70;14.13;;;-0.60;99.90;;;;;;4944753;28;252507;-82
2022/03/08 07:06:21;;;;;;;26.33;14.05;;;-0.50;99.90;;;;;;4941332;28;20098;-83
2022/03/08 07:08:47;;;;;;;26.48;14.23;;;-0.40;99.90;;;;;;4957736;28;259556;-82
2022/03/08 07:11:14;;;;;;;26.58;13.98;;;-0.40;99.90;;;;;;4933992;28;20050;-82
2022/03/08 07:13:40;;;;;;;25.45;13.32;;;-0.30;99.90;;;;;;4974370;28;20057;-82
2022/03/08 07:16:06;;;;;;;24.00;13.73;;;-0.20;99.90;;;;;;4919923;28;156800;-83
2022/03/08 07:18:34;;;;;;;22.38;13.65;;;-0.10;99.90;;;;;;4980092;28;20046;-83
2022/03/08 07:21:02;;;;;;;23.10;13.57;;;0.00;99.90;;;;;;4937515;28;275693;-82
2022/03/08 07:23:28;;;;;;;25.48;14.02;;;0.10;99.90;;;;;;5001771;28;20544;-83
2022/03/08 07:25:54;;;;;;;25.00;13.63;;;0.20;99.90;;;;;;4923347;28;20039;-83
2022/03/08 07:28:21;;;;;;;24.08;13.90;;;0.30;99.90;;;;;;4978312;28;20053;-83
2022/03/08 07:30:47;;;;;;;22.63;13.52;;;0.30;99.90;;;;;;4929472;28;254480;-83
2022/03/08 07:33:13;;;;;;;24.35;12.98;;;0.50;99.90;;;;;;4973475;28;20046;-81
2022/03/08 07:35:39;;;;;;;24.05;13.00;;;0.50;99.90;;;;;;4917172;28;232808;-82
2022/03/08 07:38:05;;;;;;;23.33;12.48;;;0.50;99.90;;;;;;4965416;28;20062;-83
2022/03/08 07:40:31;;;;;;;22.38;12.65;;;0.60;99.90;;;;;;4919769;28;96954;-82
2022/03/08 07:42:59;;;;;;;25.65;12.70;;;0.70;99.90;;;;;;4977249;28;20057;-82
2022/03/08 07:45:26;;;;;;;25.13;13.13;;;0.80;99.90;;;;;;4920994;28;227584;-82
2022/03/08 07:47:52;;;;;;;23.40;13.38;;;0.90;99.90;;;;;;4967165;28;20054;-82
2022/03/08 07:50:18;;;;;;;20.17;12.25;;;1.00;99.90;;;;;;4926510;28;264833;-82
2022/03/08 07:52:45;;;;;;;21.77;11.80;;;1.00;99.90;;;;;;4955972;28;20077;-83
2022/03/08 07:55:11;;;;;;;21.80;12.73;;;1.20;99.90;;;;;;4929352;28;20046;-82
2022/03/08 07:57:37;;;;;;;21.80;12.40;;;1.20;99.90;;;;;;4962677;28;20531;-82
2022/03/08 08:00:05;;;;;;;22.02;12.60;;;1.30;99.90;;;;;;4917743;28;20046;-82
2022/03/08 08:02:31;;;;;;;18.52;11.50;;;1.40;99.90;;;;;;4956036;28;20062;-82
2022/03/08 08:04:57;;;;;;;23.98;12.07;;;1.40;99.90;;;;;;4906898;28;78778;-82
2022/03/08 08:07:23;;;;;;;22.02;11.73;;;1.50;99.90;;;;;;4951288;28;20053;-82
2022/03/08 08:09:50;;;;;;;19.83;11.85;;;1.60;99.90;;;;;;4934028;28;36551;-82
2022/03/08 08:12:16;;;;;;;23.80;11.95;;;1.70;99.90;;;;;;4978382;28;20046;-82
2022/03/08 08:14:42;;;;;;;21.88;11.68;;;1.70;99.90;;;;;;4926914;28;50445;-81
2022/03/08 08:17:08;;;;;;;21.67;11.77;;;1.90;99.90;;;;;;4975722;28;20064;-82
2022/03/08 08:19:34;;;;;;;20.08;11.07;;;1.90;99.90;;;;;;4934691;28;81345;-82
2022/03/08 08:22:00;;;;;;;20.52;11.85;;;2.00;99.90;;;;;;4957438;28;20054;-82
2022/03/08 08:24:26;;;;;;;19.25;11.23;;;2.10;99.90;;;;;;4916430;28;41898;-83
2022/03/08 08:26:53;;;;;;;20.70;11.38;;;2.20;99.90;;;;;;4932848;28;20062;-82
2022/03/08 08:29:19;;;;;;;20.20;10.95;;;2.30;99.90;;;;;;4925969;28;69850;-82
2022/03/08 08:31:45;;;;;;;19.48;11.50;;;2.20;99.90;;;;;;4940640;28;20043;-82
2022/03/08 08:34:11;;;;;;;19.38;11.18;;;2.30;99.90;;;;;;4968462;28;38938;-82
2022/03/08 08:36:38;;;;;;;21.02;11.27;;;2.40;99.90;;;;;;4918610;28;20357;-82
2022/03/08 08:39:04;;;;;;;18.95;11.32;;;2.50;99.90;;;;;;4967951;28;244525;-80
2022/03/08 08:41:31;;;;;;;20.35;11.68;;;2.60;99.90;;;;;;4943890;28;20046;-81
2022/03/08 08:43:57;;;;;;;18.40;10.68;;;2.60;99.90;;;;;;4939345;28;272685;-81
2022/03/08 08:46:23;;;;;;;20.70;11.07;;;2.70;99.90;;;;;;4937213;28;20057;-81
2022/03/08 08:48:49;;;;;;;17.38;10.95;;;2.70;99.90;;;;;;4951425;28;241961;-80
2022/03/08 08:51:15;;;;;;;22.88;11.23;;;2.80;99.90;;;;;;4911486;28;20043;-80
2022/03/08 08:53:41;;;;;;;19.90;10.43;;;3.00;99.90;;;;;;4974106;28;20055;-80
2022/03/08 08:56:07;;;;;;;17.17;10.68;;;3.10;99.90;;;;;;4892704;28;280486;-81
2022/03/08 08:58:34;;;;;;;17.30;10.38;;;3.20;99.90;;;;;;4972625;28;20070;-81
2022/03/08 09:01:00;;;;;;;17.35;10.48;;;3.20;99.90;;;;;;4918354;28;108124;-81
2022/03/08 09:03:26;;;;;;;18.95;10.40;;;3.30;99.90;;;;;;4978443;28;20062;-82
2022/03/08 09:05:52;;;;;;;17.73;10.40;;;3.40;99.90;;;;;;4931133;28;78551;-82
2022/03/08 09:08:24;;;;;;;19.88;11.32;;;3.50;99.90;;;;;;4996449;28;20054;-80
2022/03/08 09:10:54;;;;;;;17.23;10.27;;;3.60;99.90;;;;;;4926549;28;246649;-81
2022/03/08 09:13:22;;;;;;;17.40;10.27;;;3.60;99.90;;;;;;4962333;28;20043;-82
2022/03/08 09:15:48;;;;;;;17.80;10.82;;;3.70;99.90;;;;;;4919703;28;249776;-82
2022/03/08 09:18:15;;;;;;;15.80;9.38;;;3.80;99.90;;;;;;4977170;28;20058;-82
2022/03/08 09:20:42;;;;;;;16.65;10.23;;;3.90;99.90;;;;;;4933076;28;254261;-83
2022/03/08 09:23:09;;;;;;;16.70;9.85;;;4.00;99.90;;;;;;4983992;28;20061;-82
2022/03/08 09:25:36;;;;;;;18.23;9.98;;;4.10;99.90;;;;;;4943057;28;193359;-83
2022/03/08 09:28:05;;;;;;;16.75;10.30;;;4.20;99.90;;;;;;4988763;28;20051;-83
2022/03/08 09:30:32;;;;;;;17.45;9.45;;;4.30;99.90;;;;;;4918428;28;244196;-83
2022/03/08 09:32:59;;;;;;;18.25;9.48;;;4.40;99.90;;;;;;4974778;28;20124;-83
2022/03/08 09:35:26;;;;;;;14.95;9.18;;;4.40;99.90;;;;;;4948502;28;43760;-83
2022/03/08 09:37:53;;;;;;;17.67;9.48;;;4.50;99.90;;;;;;4955180;28;20420;-84
2022/03/08 09:40:20;;;;;;;17.48;9.43;;;4.60;99.90;;;;;;4929726;28;29568;-84
2022/03/08 09:42:48;;;;;;;15.18;9.20;;;4.70;99.90;;;;;;4961624;28;20051;-83
2022/03/08 09:45:15;;;;;;;14.95;8.90;;;4.80;99.90;;;;;;4927978;28;252579;-84
2022/03/08 09:47:41;;;;;;;15.25;8.80;;;4.80;99.90;;;;;;4966434;28;20069;-84
2022/03/08 09:50:09;;;;;;;14.57;7.35;;;4.90;99.90;;;;;;4937814;28;24533;-83
2022/03/08 09:52:38;;;;;;;17.15;7.85;;;5.00;99.90;;;;;;4971529;28;20065;-84
2022/03/08 09:55:11;;;;;;;14.68;7.63;;;5.10;99.90;;;;;;4932287;28;78787;-84
2022/03/08 09:57:38;;;;;;;13.43;7.22;;;5.20;99.70;;;;;;4971612;28;20062;-83
2022/03/08 10:00:05;;;;;;;15.88;7.18;;;5.30;99.70;;;;;;4931830;28;40377;-83
2022/03/08 10:02:47;;;;;;;14.52;7.18;;;5.40;99.30;;;;;;4961966;28;20051;-84
2022/03/08 10:05:13;;;;;;;;;;;5.50;99.30;;;;;;4913092;28;141467;-84
2022/03/08 10:07:59;;;;;;;14.20;6.13;;;5.70;98.40;;;;;;4960833;28;19922;-83
2022/03/08 10:10:26;;;;;;;11.52;5.78;;;6.10;99.10;;;;;;4896276;28;211028;-82
2022/03/08 10:12:56;;;;;;;12.65;6.00;;;6.80;98.80;;;;;;4956890;28;20058;-81
2022/03/08 10:15:22;;;;;;;12.43;5.60;;;7.70;98.00;;;;;;4931763;28;137306;-81
2022/03/08 10:17:48;;;;;;;10.85;5.40;;;8.70;97.20;;;;;;4971534;28;20476;-81
2022/03/08 10:20:28;;;;;;;11.13;5.13;;;9.50;95.10;;;;;;4929070;28;57790;-81
2022/03/08 10:22:54;;;;;;;11.82;5.00;;;10.30;92.90;;;;;;4973049;28;20062;-81
2022/03/08 10:25:25;;;;;;;10.20;4.78;;;10.80;87.90;;;;;;4935140;28;33632;-81
2022/03/08 10:27:54;;;;;;;11.48;5.22;;;11.50;89.30;;;;;;4972225;28;20055;-80
2022/03/08 10:30:21;;;;;;;11.65;4.90;;;12.00;82.50;;;;;;4913575;28;155464;-81
2022/03/08 10:32:48;;;;;;;11.10;5.18;;;11.90;65.80;;;;;;4984027;28;20035;-80
2022/03/08 10:35:25;;;;;;;10.50;5.07;;;12.10;63.50;;;;;;4943255;28;171994;-81
2022/03/08 10:37:52;;;;;;;12.82;4.70;;;12.10;65.40;;;;;;4985138;28;20050;-81
2022/03/08 10:40:23;;;;;;;9.30;4.90;;;11.80;69.00;;;;;;4926105;28;106684;-81
2022/03/08 10:43:17;;;;;;;10.27;5.22;;;12.00;66.60;;;;;;4958738;28;20050;-81
2022/03/08 10:45:49;;;;;;;9.68;4.80;;;12.50;66.50;;;;;;4925777;28;163534;-81
2022/03/08 10:48:18;;;;;;;10.52;5.07;;;13.10;60.40;;;;;;4976053;28;20058;-81
2022/03/08 10:50:46;;;;;;;10.35;5.32;;;13.60;64.20;;;;;;4915125;28;257963;-82
2022/03/08 10:53:13;;;;;;;10.65;5.13;;;14.10;63.40;;;;;;4968591;28;20047;-81
2022/03/08 10:55:46;;;;;;;10.05;4.82;;;14.80;63.70;;;;;;4919028;28;211640;-81
2022/03/08 10:58:14;;;;;;;13.05;5.50;;;15.10;58.70;;;;;;4965728;28;20077;-81
2022/03/08 11:00:43;;;;;;;9.82;5.18;;;15.30;54.30;;;;;;4932794;28;179110;-82
2022/03/08 11:03:15;;;;;;;11.18;5.78;;;15.00;47.90;;;;;;4974268;28;20047;-81
2022/03/08 11:05:47;;;;;;;10.57;5.32;;;14.90;52.40;;;;;;4897815;28;266301;-80
2022/03/08 11:08:14;;;;;;;9.95;4.95;;;15.00;49.40;;;;;;4975140;28;20055;-81
2022/03/08 11:10:43;;;;;;;10.60;5.22;;;15.50;54.90;;;;;;4929755;28;266583;-81
2022/03/08 11:13:10;;;;;;;11.02;5.60;;;16.40;55.30;;;;;;4977769;28;20115;-82
2022/03/08 11:15:39;;;;;;;10.90;4.93;;;17.10;54.50;;;;;;4919522;28;253535;-82
2022/03/08 11:18:09;;;;;;;11.32;5.45;;;17.40;48.70;;;;;;4973336;28;20072;-81
2022/03/08 11:20:37;;;;;;;11.32;5.10;;;17.50;49.40;;;;;;4928165;28;54281;-81
2022/03/08 11:23:04;;;;;;;9.73;5.05;;;17.70;50.30;;;;;;4973096;28;20046;-82
2022/03/08 11:25:33;;;;;;;10.27;4.88;;;18.00;49.30;;;;;;4934281;28;43344;-81
2022/03/08 11:28:02;;;;;;;10.20;4.97;;;18.30;48.50;;;;;;4974286;28;20069;-81
2022/03/08 11:30:53;;;;;;;9.20;4.60;;;18.60;47.80;;;;;;4942983;28;295976;-81
2022/03/08 11:33:39;;;;;;;8.85;4.65;;;18.80;44.40;;;;;;4929300;29;20047;-81
2022/03/08 11:36:31;;;;;;;9.32;4.65;;;18.90;46.20;;;;;;4873791;29;136095;-81
2022/03/08 11:39:30;;;;;;;10.00;4.70;;;19.30;43.20;;;;;;4933521;29;42459;-82
2022/03/08 11:42:20;;;;;;;10.32;4.30;;;19.30;42.30;;;;;;4852331;29;20044;-81
2022/03/08 11:45:11;;;;;;;8.88;3.80;;;19.50;44.30;;;;;;4857835;29;78435;-81
2022/03/08 11:47:44;;;;;;;10.10;3.70;;;19.70;42.30;;;;;;4876731;29;20599;-81
2022/03/08 11:50:38;;;;;;;8.95;3.83;;;19.60;41.20;;;;;;4859028;29;27002;-81
2022/03/08 11:53:06;;;;;;;8.45;3.97;;;19.00;37.50;;;;;;4887053;29;20059;-82
2022/03/08 11:55:44;;;;;;;9.20;4.15;;;18.90;41.50;;;;;;4844782;29;23988;-82
2022/03/08 11:58:14;;;;;;;9.25;4.00;;;19.20;39.50;;;;;;4900447;29;20053;-82
2022/03/08 12:00:52;;;;;;;9.05;3.80;;;19.50;40.10;;;;;;4821962;29;94794;-82
2022/03/08 12:03:21;;;;;;;8.43;3.78;;;19.90;40.00;;;;;;4897298;29;20061;-81
2022/03/08 12:06:00;;;;;;;8.65;4.15;;;20.10;39.70;;;;;;4841386;29;213629;-81
2022/03/08 12:08:32;;;;;;;8.75;3.75;;;20.10;38.20;;;;;;4884939;29;20268;-82
2022/03/08 12:10:58;;;;;;;8.30;3.85;;;20.50;40.00;;;;;;4869414;29;20044;-82
2022/03/08 12:13:25;;;;;;;10.20;3.75;;;20.60;38.40;;;;;;4933336;29;20050;-81
2022/03/08 12:16:08;;;;;;;8.85;3.92;;;20.60;38.00;;;;;;4881112;29;85080;-82
2022/03/08 12:18:50;;;;;;;8.40;3.97;;;20.80;37.20;;;;;;4972349;28;20058;-82
2022/03/08 12:21:19;;;;;;;9.95;3.85;;;21.00;38.50;;;;;;4938390;28;20062;-81
2022/03/08 12:23:50;;;;;;;10.20;4.28;;;21.30;38.00;;;;;;4967040;28;252467;-83
2022/03/08 12:26:50;;;;;;;9.15;4.30;;;21.60;36.70;;;;;;4966257;28;20042;-83
2022/03/08 12:29:21;;;;;;;9.07;4.05;;;21.90;37.10;;;;;;4959183;28;80817;-83
2022/03/08 12:31:57;;;;;;;8.88;4.35;;;22.20;37.20;;;;;;4943082;28;20083;-83
2022/03/08 12:34:45;;;;;;;9.32;4.38;;;22.70;36.60;;;;;;4935561;28;247785;-83
2022/03/08 12:37:22;;;;;;;8.98;4.32;;;22.50;33.70;;;;;;4984562;28;20057;-82